Time;durP1;ratioP1;P1;durP2;ratioP2;P2;SDS_P1;SDS_P2;PMS_P1;PMS_P2;Temp;Humidity;BMP_temperature;BMP_pressure;BME280_temperature;BME280_humidity;BME280_pressure;Samples;Min_cycle;Max_cycle;Signal;HPM_P1;HPM_P2
2021/03/31 00:00:38;;;;;;;20.60;10.75;;;10.70;57.90;;;;;;5047855;28;20063;-75
2021/03/31 00:03:07;;;;;;;31.50;11.63;;;10.60;57.80;;;;;;5015393;28;20115;-76
2021/03/31 00:05:32;;;;;;;23.25;11.80;;;10.60;58.20;;;;;;5016929;28;20039;-76
2021/03/31 00:07:58;;;;;;;23.73;11.00;;;10.60;58.30;;;;;;5048255;28;20033;-76
2021/03/31 00:10:34;;;;;;;25.60;12.43;;;10.60;58.30;;;;;;5048489;28;20037;-75
2021/03/31 00:13:00;;;;;;;22.60;11.02;;;10.60;58.00;;;;;;5048770;28;20057;-75
2021/03/31 00:15:25;;;;;;;24.75;11.55;;;10.60;58.20;;;;;;5014157;28;20060;-75
2021/03/31 00:17:51;;;;;;;27.27;11.35;;;10.60;58.20;;;;;;5030356;28;20036;-75
2021/03/31 00:20:17;;;;;;;27.50;12.30;;;10.50;58.30;;;;;;5014579;28;20052;-75
2021/03/31 00:22:43;;;;;;;23.00;12.13;;;10.50;57.40;;;;;;5032508;28;20056;-75
2021/03/31 00:25:09;;;;;;;25.17;12.20;;;10.40;57.70;;;;;;5028562;28;20067;-75
2021/03/31 00:27:35;;;;;;;19.02;9.77;;;10.30;58.50;;;;;;5010183;28;20075;-75
2021/03/31 00:30:01;;;;;;;22.65;10.73;;;10.20;58.80;;;;;;5027819;28;20049;-75
2021/03/31 00:32:26;;;;;;;23.45;13.02;;;10.20;58.70;;;;;;5012685;28;20029;-76
2021/03/31 00:34:52;;;;;;;21.70;12.00;;;10.20;58.70;;;;;;5043917;28;20025;-76
2021/03/31 00:37:17;;;;;;;18.25;11.07;;;10.10;58.30;;;;;;5011704;28;20044;-75
2021/03/31 00:39:43;;;;;;;18.63;9.32;;;10.20;58.10;;;;;;5012172;28;20116;-75
2021/03/31 00:42:08;;;;;;;18.55;9.23;;;10.30;58.00;;;;;;5043624;28;20045;-75
2021/03/31 00:44:34;;;;;;;21.75;10.75;;;10.40;57.90;;;;;;5021698;28;20120;-75
2021/03/31 00:46:59;;;;;;;16.98;8.93;;;10.30;57.80;;;;;;5009132;28;20068;-75
2021/03/31 00:49:25;;;;;;;23.25;10.40;;;10.20;58.30;;;;;;5048278;28;20499;-75
2021/03/31 00:51:50;;;;;;;23.73;11.48;;;10.00;58.30;;;;;;5027795;28;20028;-75
2021/03/31 00:54:16;;;;;;;23.48;10.95;;;9.90;59.60;;;;;;5014004;28;20033;-75
2021/03/31 00:56:41;;;;;;;22.40;10.70;;;9.80;60.30;;;;;;5047647;28;20052;-75
2021/03/31 00:59:07;;;;;;;21.42;9.90;;;9.80;60.70;;;;;;5047125;28;20033;-75
2021/03/31 01:01:32;;;;;;;19.45;10.32;;;9.80;60.80;;;;;;5031650;28;20087;-75
2021/03/31 01:03:58;;;;;;;18.35;10.50;;;9.70;60.60;;;;;;5015248;28;20037;-75
2021/03/31 01:06:24;;;;;;;19.30;9.98;;;9.60;60.90;;;;;;5048483;28;20040;-75
2021/03/31 01:08:49;;;;;;;19.35;10.85;;;9.70;61.00;;;;;;5035547;28;20032;-75
2021/03/31 01:11:31;;;;;;;22.63;12.02;;;9.60;60.90;;;;;;5027259;28;20033;-75
2021/03/31 01:14:07;;;;;;;23.45;12.38;;;9.60;61.50;;;;;;5014508;28;20028;-75
2021/03/31 01:16:33;;;;;;;;;;;9.60;60.90;;;;;;5012755;28;20551;-75
2021/03/31 01:19:37;;;;;;;22.35;9.75;;;9.50;61.10;;;;;;5046524;28;20013;-75
2021/03/31 01:22:27;;;;;;;20.85;9.57;;;9.30;61.60;;;;;;5014561;28;20124;-75
2021/03/31 01:25:01;;;;;;;22.55;11.23;;;9.40;60.70;;;;;;5042622;28;20095;-75
2021/03/31 01:27:46;;;;;;;21.58;10.60;;;9.40;60.80;;;;;;5025717;28;20215;-75
2021/03/31 01:30:28;;;;;;;22.42;11.68;;;9.40;61.20;;;;;;5024356;28;20084;-75
2021/03/31 01:33:06;;;;;;;20.83;11.07;;;9.30;61.50;;;;;;5010643;28;20106;-75
2021/03/31 01:35:32;;;;;;;22.48;10.93;;;9.20;62.40;;;;;;5028067;28;20231;-75
2021/03/31 01:38:02;;;;;;;21.75;10.50;;;9.10;62.10;;;;;;5024983;28;20040;-75
2021/03/31 01:40:28;;;;;;;18.05;9.25;;;9.00;62.70;;;;;;5008135;28;20032;-75
2021/03/31 01:43:08;;;;;;;15.20;9.25;;;9.00;62.90;;;;;;5011491;28;20035;-75
2021/03/31 01:45:34;;;;;;;21.27;9.00;;;9.00;62.30;;;;;;5044342;28;20542;-75
2021/03/31 01:48:02;;;;;;;14.05;7.30;;;9.00;61.80;;;;;;5015943;28;20040;-75
2021/03/31 01:50:28;;;;;;;14.40;7.13;;;9.00;61.10;;;;;;5034887;28;20099;-75
2021/03/31 01:52:54;;;;;;;13.57;6.07;;;9.00;60.10;;;;;;5053411;28;20493;-75
2021/03/31 01:55:19;;;;;;;14.35;6.68;;;9.10;59.80;;;;;;5054427;28;20040;-75
2021/03/31 01:57:45;;;;;;;14.60;6.25;;;9.10;59.10;;;;;;5055485;28;20040;-75
2021/03/31 02:00:15;;;;;;;13.57;7.07;;;9.30;58.30;;;;;;5026208;28;20038;-75
2021/03/31 02:02:46;;;;;;;12.27;6.43;;;9.50;58.10;;;;;;5066512;28;20722;-75
2021/03/31 02:05:12;;;;;;;11.77;5.78;;;9.50;58.10;;;;;;5046059;28;20115;-75
2021/03/31 02:07:39;;;;;;;20.75;6.90;;;9.30;58.10;;;;;;5023123;28;20503;-75
2021/03/31 02:10:05;;;;;;;15.05;6.20;;;9.10;58.50;;;;;;5030835;28;20116;-75
2021/03/31 02:12:30;;;;;;;11.98;6.05;;;9.20;58.00;;;;;;5009484;28;20108;-75
2021/03/31 02:14:56;;;;;;;18.40;6.20;;;9.20;58.40;;;;;;5030028;28;20032;-75
2021/03/31 02:17:25;;;;;;;10.63;6.20;;;9.10;58.10;;;;;;5024567;28;20059;-75
2021/03/31 02:19:51;;;;;;;17.63;8.93;;;9.20;57.90;;;;;;5047759;28;20060;-78
2021/03/31 02:22:18;;;;;;;12.85;6.38;;;9.40;58.00;;;;;;5044730;28;20068;-75
2021/03/31 02:24:44;;;;;;;16.90;6.78;;;9.30;57.50;;;;;;5026871;28;20477;-75
2021/03/31 02:27:10;;;;;;;19.80;9.38;;;9.20;58.20;;;;;;5011579;28;20485;-75
2021/03/31 02:29:36;;;;;;;12.80;7.50;;;9.10;58.40;;;;;;5023266;28;20107;-75
2021/03/31 02:32:01;;;;;;;16.77;8.23;;;9.10;58.50;;;;;;5043738;28;20903;-75
2021/03/31 02:34:27;;;;;;;13.57;7.10;;;9.10;58.40;;;;;;5007458;28;20021;-75
2021/03/31 02:36:53;;;;;;;13.15;6.00;;;9.00;58.40;;;;;;5012925;28;20082;-75
2021/03/31 02:39:20;;;;;;;13.73;7.22;;;9.20;59.60;;;;;;5029098;28;20433;-75
2021/03/31 02:41:48;;;;;;;12.85;7.13;;;9.10;59.00;;;;;;5037967;28;20028;-75
2021/03/31 02:44:14;;;;;;;12.75;6.18;;;8.90;59.10;;;;;;5024982;28;20037;-75
2021/03/31 02:46:39;;;;;;;13.05;7.32;;;8.90;58.40;;;;;;5038226;28;20381;-75
2021/03/31 02:49:06;;;;;;;9.25;5.43;;;9.00;58.00;;;;;;5021620;28;20045;-75
2021/03/31 02:51:33;;;;;;;10.23;5.97;;;9.00;58.40;;;;;;5021064;28;20037;-75
2021/03/31 02:54:00;;;;;;;10.13;5.57;;;9.00;57.60;;;;;;5053165;28;20028;-75
2021/03/31 02:56:25;;;;;;;11.70;5.70;;;9.00;56.70;;;;;;5023816;28;20052;-75
2021/03/31 02:58:51;;;;;;;12.40;6.18;;;9.10;56.60;;;;;;5050698;28;20032;-75
2021/03/31 03:01:16;;;;;;;13.20;6.85;;;9.20;57.30;;;;;;5025784;28;20060;-75
2021/03/31 03:03:42;;;;;;;10.02;5.45;;;9.10;56.60;;;;;;5015923;28;20032;-75
2021/03/31 03:06:07;;;;;;;13.63;5.65;;;9.10;56.70;;;;;;5043906;28;20037;-75
2021/03/31 03:08:33;;;;;;;13.23;6.40;;;9.20;56.40;;;;;;5013865;28;20030;-75
2021/03/31 03:10:59;;;;;;;9.15;5.55;;;9.30;56.70;;;;;;5028740;28;20048;-75
2021/03/31 03:13:26;;;;;;;12.90;6.50;;;9.30;55.90;;;;;;5059583;28;20512;-75
2021/03/31 03:15:52;;;;;;;10.40;6.50;;;9.40;55.70;;;;;;5029226;28;20030;-75
2021/03/31 03:18:17;;;;;;;12.48;5.95;;;9.60;55.90;;;;;;5025945;28;20068;-75
2021/03/31 03:20:43;;;;;;;13.73;5.82;;;9.50;55.20;;;;;;5059521;28;20040;-75
2021/03/31 03:23:08;;;;;;;11.88;6.13;;;9.60;56.20;;;;;;5021641;28;20041;-75
2021/03/31 03:25:34;;;;;;;15.55;6.63;;;9.70;55.60;;;;;;5011897;28;20048;-75
2021/03/31 03:28:00;;;;;;;10.35;5.82;;;9.60;55.50;;;;;;5021941;28;20061;-75
2021/03/31 03:30:26;;;;;;;15.52;6.20;;;9.70;56.00;;;;;;5021124;28;20128;-77
2021/03/31 03:32:51;;;;;;;15.07;7.22;;;9.70;55.80;;;;;;5053335;28;20024;-77
2021/03/31 03:35:18;;;;;;;14.80;7.88;;;9.50;56.00;;;;;;5023281;28;20040;-77
2021/03/31 03:37:44;;;;;;;18.10;6.70;;;9.70;55.50;;;;;;5042350;28;20115;-77
2021/03/31 03:40:10;;;;;;;11.65;6.43;;;9.70;55.50;;;;;;5041516;28;20037;-77
2021/03/31 03:42:37;;;;;;;13.13;5.80;;;9.70;55.40;;;;;;5016250;28;20285;-77
2021/03/31 03:45:03;;;;;;;14.80;6.90;;;9.80;55.30;;;;;;5051841;28;20116;-77
2021/03/31 03:47:29;;;;;;;10.82;6.07;;;9.70;55.30;;;;;;5037264;28;20037;-77
2021/03/31 03:49:55;;;;;;;14.20;7.40;;;9.80;55.50;;;;;;5030436;28;20028;-77
2021/03/31 03:52:21;;;;;;;13.27;7.22;;;9.60;54.90;;;;;;5014294;28;20061;-77
2021/03/31 03:54:53;;;;;;;15.85;7.70;;;9.60;55.20;;;;;;5050594;28;20043;-77
2021/03/31 03:57:26;;;;;;;10.77;6.53;;;9.70;55.30;;;;;;5023254;28;20037;-77
2021/03/31 03:59:51;;;;;;;11.38;6.32;;;9.70;54.90;;;;;;5035378;28;20036;-78
2021/03/31 04:02:17;;;;;;;10.43;5.53;;;9.60;55.60;;;;;;5047657;28;20106;-77
2021/03/31 04:04:43;;;;;;;14.68;7.20;;;9.60;55.70;;;;;;5012513;28;20036;-77
2021/03/31 04:07:08;;;;;;;10.80;5.72;;;9.60;55.20;;;;;;5033340;28;20039;-77
2021/03/31 04:09:34;;;;;;;15.07;7.07;;;9.60;55.40;;;;;;5016158;28;20036;-77
2021/03/31 04:11:59;;;;;;;14.85;6.63;;;9.50;55.40;;;;;;5027145;28;20042;-77
2021/03/31 04:14:25;;;;;;;13.65;6.85;;;9.30;55.50;;;;;;5027641;28;20048;-77
2021/03/31 04:16:50;;;;;;;14.02;7.25;;;9.30;56.10;;;;;;5008873;28;20080;-77
2021/03/31 04:19:18;;;;;;;13.52;7.07;;;9.20;56.10;;;;;;5010063;28;20032;-77
2021/03/31 04:21:43;;;;;;;9.85;5.75;;;9.40;56.50;;;;;;5023527;28;20055;-77
2021/03/31 04:24:12;;;;;;;12.63;6.70;;;9.40;55.70;;;;;;5044703;28;20061;-77
2021/03/31 04:26:38;;;;;;;10.82;7.15;;;9.50;56.20;;;;;;5027895;28;20124;-77
2021/03/31 04:29:05;;;;;;;14.73;7.60;;;9.30;56.40;;;;;;5035978;28;20124;-77
2021/03/31 04:31:32;;;;;;;12.07;6.45;;;9.30;56.00;;;;;;5011554;28;20039;-77
2021/03/31 04:33:58;;;;;;;17.15;8.45;;;9.30;56.30;;;;;;5034381;28;20036;-77
2021/03/31 04:36:23;;;;;;;17.55;7.65;;;9.20;55.90;;;;;;5020529;28;20044;-77
2021/03/31 04:38:50;;;;;;;15.23;6.88;;;9.20;56.00;;;;;;5053013;28;20039;-78
2021/03/31 04:41:16;;;;;;;14.50;7.18;;;9.10;56.10;;;;;;5022016;28;20034;-77
2021/03/31 04:43:41;;;;;;;12.60;7.13;;;9.10;56.40;;;;;;5049279;28;20051;-77
2021/03/31 04:46:09;;;;;;;11.75;7.40;;;9.40;56.50;;;;;;5014913;28;20045;-77
2021/03/31 04:48:36;;;;;;;16.33;7.82;;;9.50;55.70;;;;;;5045871;28;20362;-75
2021/03/31 04:51:02;;;;;;;13.27;6.68;;;9.40;55.20;;;;;;5012314;28;20106;-75
2021/03/31 04:53:27;;;;;;;12.65;7.15;;;9.20;55.60;;;;;;5015491;28;22141;-75
2021/03/31 04:55:53;;;;;;;15.27;7.13;;;9.10;55.50;;;;;;5030749;28;20024;-75
2021/03/31 04:58:18;;;;;;;15.75;6.85;;;9.10;55.70;;;;;;5041165;28;20621;-75
2021/03/31 05:00:44;;;;;;;14.48;7.22;;;9.00;55.80;;;;;;5029491;28;20040;-75
2021/03/31 05:03:10;;;;;;;13.43;6.47;;;8.90;56.50;;;;;;5028591;28;20115;-75
2021/03/31 05:05:35;;;;;;;15.23;7.45;;;9.00;56.50;;;;;;5008616;28;20029;-75
2021/03/31 05:08:01;;;;;;;15.20;8.90;;;9.00;57.00;;;;;;5031686;28;20033;-75
2021/03/31 05:10:26;;;;;;;12.93;7.22;;;9.00;56.40;;;;;;5038655;28;20063;-78
2021/03/31 05:12:52;;;;;;;13.05;6.70;;;8.90;56.60;;;;;;5005004;28;20425;-75
2021/03/31 05:15:18;;;;;;;15.65;6.93;;;8.90;56.70;;;;;;5052226;28;20065;-76
2021/03/31 05:17:44;;;;;;;11.68;6.10;;;9.10;56.90;;;;;;5025552;28;20585;-75
2021/03/31 05:20:09;;;;;;;14.55;6.70;;;9.10;56.20;;;;;;5020955;28;20030;-75
2021/03/31 05:22:35;;;;;;;19.55;6.28;;;9.00;56.40;;;;;;5014906;28;20090;-77
2021/03/31 05:25:01;;;;;;;12.57;6.80;;;9.00;56.90;;;;;;5033134;28;20477;-76
2021/03/31 05:27:26;;;;;;;12.35;6.05;;;9.10;56.50;;;;;;5046067;28;20721;-76
2021/03/31 05:29:52;;;;;;;13.57;7.93;;;9.20;56.00;;;;;;5035470;28;20449;-76
2021/03/31 05:32:17;;;;;;;12.90;7.10;;;9.10;55.50;;;;;;5029310;28;20035;-75
2021/03/31 05:34:43;;;;;;;13.68;6.88;;;9.20;56.00;;;;;;5033941;28;20025;-76
2021/03/31 05:37:08;;;;;;;14.80;7.22;;;9.20;56.40;;;;;;5049878;28;20028;-75
2021/03/31 05:39:34;;;;;;;17.05;6.50;;;9.40;55.90;;;;;;5045007;28;20037;-75
2021/03/31 05:42:00;;;;;;;13.07;6.45;;;9.40;55.60;;;;;;5049489;28;20041;-76
2021/03/31 05:44:25;;;;;;;12.95;7.10;;;9.40;55.20;;;;;;5045582;28;20035;-76
2021/03/31 05:46:51;;;;;;;13.48;7.00;;;9.40;55.30;;;;;;5034304;28;20337;-75
2021/03/31 05:49:17;;;;;;;14.13;6.55;;;9.40;55.20;;;;;;5021285;28;20305;-76
2021/03/31 05:51:42;;;;;;;12.20;6.70;;;9.70;56.00;;;;;;5028503;28;20040;-75
2021/03/31 05:54:08;;;;;;;17.10;7.18;;;9.70;54.70;;;;;;5039757;28;20033;-76
2021/03/31 05:56:34;;;;;;;14.52;6.50;;;9.90;54.50;;;;;;5022294;28;20033;-76
2021/03/31 05:59:04;;;;;;;9.52;5.55;;;9.90;54.80;;;;;;5026027;28;20218;-76
2021/03/31 06:01:29;;;;;;;17.95;8.23;;;10.10;54.10;;;;;;5038190;28;20034;-75
2021/03/31 06:03:56;;;;;;;11.13;6.30;;;10.20;53.30;;;;;;5021706;28;20029;-77
2021/03/31 06:06:22;;;;;;;11.07;6.50;;;10.20;52.80;;;;;;5021503;28;20033;-77
2021/03/31 06:08:48;;;;;;;13.00;6.88;;;10.20;52.40;;;;;;5002411;28;20048;-76
2021/03/31 06:11:15;;;;;;;11.43;5.72;;;10.20;52.40;;;;;;5015980;28;20033;-76
2021/03/31 06:13:57;;;;;;;12.23;6.80;;;10.40;52.30;;;;;;5034331;28;20443;-76
2021/03/31 06:16:33;;;;;;;11.05;6.20;;;10.50;52.20;;;;;;5045834;28;20065;-77
2021/03/31 06:19:21;;;;;;;15.18;6.75;;;10.60;52.50;;;;;;5032543;28;20539;-76
2021/03/31 06:22:05;;;;;;;15.43;6.40;;;10.70;52.20;;;;;;5029148;28;20032;-76
2021/03/31 06:24:32;;;;;;;10.77;6.15;;;10.90;52.70;;;;;;5048926;28;22481;-76
2021/03/31 06:26:58;;;;;;;13.63;6.85;;;10.90;52.40;;;;;;5033673;28;20084;-76
2021/03/31 06:29:23;;;;;;;17.02;6.85;;;11.10;52.60;;;;;;5041717;28;20108;-76
2021/03/31 06:31:49;;;;;;;21.02;6.72;;;11.20;52.10;;;;;;5039791;28;20029;-76
2021/03/31 06:34:17;;;;;;;20.10;8.10;;;11.30;51.80;;;;;;5052878;28;20036;-76
2021/03/31 06:36:48;;;;;;;14.27;6.43;;;11.40;52.00;;;;;;5022852;28;20029;-76
2021/03/31 06:39:26;;;;;;;16.52;7.57;;;11.50;52.50;;;;;;5034549;28;20579;-76
2021/03/31 06:42:00;;;;;;;15.27;6.93;;;11.70;52.90;;;;;;5055584;28;20036;-75
2021/03/31 06:44:32;;;;;;;14.95;6.13;;;11.80;53.50;;;;;;5022539;28;20435;-75
2021/03/31 06:47:13;;;;;;;11.98;6.40;;;11.90;52.90;;;;;;5022583;28;20105;-75
2021/03/31 06:49:39;;;;;;;15.55;7.57;;;12.00;52.30;;;;;;5029555;28;20041;-75
2021/03/31 06:52:11;;;;;;;18.13;6.93;;;12.10;52.30;;;;;;5012263;28;20033;-75
2021/03/31 06:54:42;;;;;;;15.57;6.97;;;12.30;52.10;;;;;;5049447;28;20038;-76
2021/03/31 06:57:07;;;;;;;13.50;6.85;;;12.40;51.90;;;;;;5009844;28;20037;-76
2021/03/31 06:59:33;;;;;;;17.40;6.93;;;12.60;52.60;;;;;;5029792;28;20052;-76
2021/03/31 07:02:00;;;;;;;13.70;5.53;;;12.70;52.30;;;;;;5010599;28;20079;-75
2021/03/31 07:04:26;;;;;;;20.77;6.90;;;12.90;52.10;;;;;;5038501;28;20060;-75
2021/03/31 07:07:11;;;;;;;15.48;6.72;;;13.00;52.00;;;;;;5022610;28;20075;-76
2021/03/31 07:09:39;;;;;;;16.25;5.78;;;13.20;52.20;;;;;;5032399;28;20082;-75
2021/03/31 07:12:21;;;;;;;16.95;5.95;;;13.40;51.50;;;;;;5030847;28;20037;-75
2021/03/31 07:14:48;;;;;;;14.27;6.60;;;13.60;50.80;;;;;;5043199;28;20035;-76
2021/03/31 07:17:21;;;;;;;10.48;5.40;;;13.80;50.70;;;;;;5042671;28;20075;-76
2021/03/31 07:19:47;;;;;;;11.82;5.65;;;14.00;50.60;;;;;;5048903;28;20035;-76
2021/03/31 07:22:13;;;;;;;14.07;6.47;;;14.30;49.80;;;;;;5011122;28;20033;-76
2021/03/31 07:24:39;;;;;;;10.05;6.10;;;14.60;48.80;;;;;;5044414;28;20047;-75
2021/03/31 07:27:04;;;;;;;17.35;7.03;;;14.70;48.80;;;;;;5028270;28;20033;-75
2021/03/31 07:29:30;;;;;;;15.98;6.00;;;14.70;48.30;;;;;;5023827;28;20037;-76
2021/03/31 07:31:55;;;;;;;12.95;5.60;;;14.90;48.60;;;;;;5048516;28;20029;-76
2021/03/31 07:34:28;;;;;;;15.45;7.32;;;15.20;48.30;;;;;;5025641;28;20118;-76
2021/03/31 07:36:54;;;;;;;13.63;7.13;;;15.50;47.00;;;;;;5024544;28;20507;-76
2021/03/31 07:39:24;;;;;;;11.43;5.60;;;15.60;46.70;;;;;;5033347;28;20033;-76
2021/03/31 07:41:50;;;;;;;13.25;5.93;;;15.80;47.10;;;;;;5046968;28;20047;-76
2021/03/31 07:44:19;;;;;;;16.70;6.50;;;16.00;46.60;;;;;;5009728;28;20033;-76
2021/03/31 07:46:44;;;;;;;13.98;6.28;;;16.20;45.60;;;;;;5000280;28;20033;-75
2021/03/31 07:49:10;;;;;;;14.18;7.47;;;16.20;45.90;;;;;;5007115;28;20040;-75
2021/03/31 07:51:36;;;;;;;10.18;5.82;;;16.20;46.00;;;;;;5031303;28;20025;-75
2021/03/31 07:54:03;;;;;;;16.90;9.80;;;16.40;46.60;;;;;;5033982;28;20033;-76
2021/03/31 07:56:31;;;;;;;14.65;6.45;;;16.80;46.00;;;;;;5036979;28;20043;-76
2021/03/31 07:59:09;;;;;;;9.73;5.50;;;16.80;46.20;;;;;;5053858;28;20515;-76
2021/03/31 08:01:37;;;;;;;19.00;6.63;;;17.70;45.10;;;;;;5051408;28;20036;-76
2021/03/31 08:04:03;;;;;;;11.88;5.72;;;17.70;44.20;;;;;;5035134;28;20048;-76
2021/03/31 08:06:32;;;;;;;13.65;6.32;;;18.00;44.30;;;;;;5023402;28;20500;-75
2021/03/31 08:08:59;;;;;;;8.65;4.88;;;18.30;43.40;;;;;;5048841;28;20668;-76
2021/03/31 08:11:37;;;;;;;12.57;5.15;;;18.40;43.30;;;;;;5022028;28;20392;-76
2021/03/31 08:14:03;;;;;;;17.70;6.07;;;18.40;43.30;;;;;;5048739;28;20475;-76
2021/03/31 08:16:47;;;;;;;17.35;6.28;;;18.50;41.80;;;;;;5025452;28;20033;-76
2021/03/31 08:19:16;;;;;;;14.65;5.50;;;18.60;43.00;;;;;;5036179;28;20045;-76
2021/03/31 08:21:44;;;;;;;8.30;4.72;;;19.10;43.70;;;;;;5037198;28;20396;-76
2021/03/31 08:24:10;;;;;;;15.07;6.68;;;19.40;42.30;;;;;;5027838;28;20037;-76
2021/03/31 08:26:41;;;;;;;14.13;5.45;;;19.60;41.70;;;;;;5003284;28;20038;-76
2021/03/31 08:29:30;;;;;;;8.57;5.13;;;19.70;42.10;;;;;;5044471;28;20432;-75
2021/03/31 08:31:58;;;;;;;8.75;4.63;;;20.10;41.80;;;;;;5037477;28;20037;-76
2021/03/31 08:34:24;;;;;;;9.55;4.65;;;20.50;40.70;;;;;;5032381;28;20099;-76
2021/03/31 08:36:49;;;;;;;9.13;3.97;;;20.50;42.10;;;;;;5035482;28;20037;-77
2021/03/31 08:39:15;;;;;;;8.95;4.53;;;20.30;41.00;;;;;;5041144;28;20406;-76
2021/03/31 08:41:42;;;;;;;8.40;4.88;;;20.80;39.70;;;;;;5017404;28;20031;-76
2021/03/31 08:44:15;;;;;;;9.65;4.30;;;20.70;40.30;;;;;;5029673;28;20480;-76
2021/03/31 08:46:41;;;;;;;10.25;4.20;;;21.30;39.40;;;;;;5021551;28;20090;-76
2021/03/31 08:49:25;;;;;;;6.35;3.70;;;21.40;39.60;;;;;;5016469;28;20033;-75
2021/03/31 08:51:52;;;;;;;8.95;3.70;;;22.20;37.90;;;;;;5007801;28;20043;-75
2021/03/31 08:54:30;;;;;;;6.57;3.80;;;22.30;36.90;;;;;;5014113;28;20064;-76
2021/03/31 08:57:00;;;;;;;6.97;3.40;;;22.50;36.30;;;;;;5047171;28;20041;-76
2021/03/31 08:59:33;;;;;;;7.05;3.45;;;22.60;36.60;;;;;;5008010;28;20044;-76
2021/03/31 09:01:59;;;;;;;6.53;3.35;;;23.50;34.40;;;;;;5011185;28;20503;-76
2021/03/31 09:04:25;;;;;;;6.55;3.55;;;23.50;34.20;;;;;;5018639;28;20041;-75
2021/03/31 09:06:55;;;;;;;5.95;3.33;;;23.60;34.70;;;;;;5048162;28;20063;-76
2021/03/31 09:09:21;;;;;;;7.90;3.22;;;23.80;33.70;;;;;;5048352;28;20040;-76
2021/03/31 09:11:46;;;;;;;5.90;3.10;;;24.40;32.50;;;;;;5035496;28;20036;-76
2021/03/31 09:14:22;;;;;;;9.75;3.53;;;24.20;32.70;;;;;;5054257;28;20028;-76
2021/03/31 09:16:58;;;;;;;6.70;3.20;;;24.40;32.20;;;;;;5021314;28;20040;-76
2021/03/31 09:19:24;;;;;;;;;;;24.40;32.00;;;;;;5032220;28;20497;-76
2021/03/31 09:21:50;;;;;;;7.60;3.00;;;24.10;33.30;;;;;;5034095;28;20387;-76
2021/03/31 09:24:16;;;;;;;7.93;4.00;;;23.80;34.80;;;;;;5019236;28;20804;-76
2021/03/31 09:26:57;;;;;;;8.13;3.05;;;24.30;32.80;;;;;;5019583;28;20033;-76
2021/03/31 09:29:24;;;;;;;5.97;3.13;;;25.20;33.20;;;;;;5048155;28;20042;-76
2021/03/31 09:31:51;;;;;;;5.15;2.72;;;25.20;32.60;;;;;;5031196;28;20056;-76
2021/03/31 09:34:16;;;;;;;8.32;3.20;;;24.90;32.70;;;;;;5048073;28;20041;-76
2021/03/31 09:36:42;;;;;;;8.48;3.15;;;25.30;31.90;;;;;;5017940;28;20036;-76
2021/03/31 09:39:10;;;;;;;6.68;3.13;;;24.90;32.50;;;;;;5012695;28;20029;-76
2021/03/31 09:41:36;;;;;;;6.43;2.97;;;25.00;33.10;;;;;;5033437;28;20036;-76
2021/03/31 09:44:02;;;;;;;5.28;2.83;;;25.50;32.30;;;;;;5017860;28;20280;-76
2021/03/31 09:46:28;;;;;;;7.90;3.83;;;25.70;30.90;;;;;;5016552;28;20531;-76
2021/03/31 09:48:54;;;;;;;4.40;3.00;;;25.40;32.30;;;;;;5031643;28;20116;-76
2021/03/31 09:51:20;;;;;;;9.02;2.90;;;25.40;31.90;;;;;;5018297;28;20117;-76
2021/03/31 09:53:45;;;;;;;4.95;2.85;;;25.60;31.90;;;;;;5056996;28;20074;-76
2021/03/31 09:56:14;;;;;;;5.53;2.75;;;25.50;33.60;;;;;;5012932;28;20107;-76
2021/03/31 09:58:40;;;;;;;5.68;3.28;;;25.10;34.20;;;;;;5026825;28;20033;-77
2021/03/31 10:01:12;;;;;;;5.65;3.60;;;25.80;31.60;;;;;;5048986;28;20514;-77
2021/03/31 10:03:38;;;;;;;7.53;3.67;;;26.50;30.60;;;;;;5037526;28;20512;-77
2021/03/31 10:06:17;;;;;;;8.57;3.00;;;26.80;29.40;;;;;;5020532;28;20041;-77
2021/03/31 10:08:44;;;;;;;5.68;3.65;;;27.20;29.80;;;;;;5056217;28;21175;-76
2021/03/31 10:11:30;;;;;;;6.65;3.45;;;26.40;31.70;;;;;;5028807;28;20431;-77
2021/03/31 10:13:56;;;;;;;9.88;3.60;;;24.90;35.30;;;;;;5055993;28;20048;-77
2021/03/31 10:16:33;;;;;;;8.25;3.35;;;25.40;34.80;;;;;;5025158;28;20401;-77
2021/03/31 10:18:58;;;;;;;11.85;3.72;;;26.90;31.20;;;;;;5041697;28;20037;-77
2021/03/31 10:21:33;;;;;;;6.07;3.28;;;25.50;34.40;;;;;;5018306;28;20036;-77
2021/03/31 10:24:00;;;;;;;6.97;4.25;;;25.70;34.20;;;;;;5024681;28;20421;-77
2021/03/31 10:26:26;;;;;;;7.97;3.58;;;24.80;37.20;;;;;;5027154;28;20101;-76
2021/03/31 10:29:08;;;;;;;8.68;4.35;;;23.90;37.10;;;;;;5030139;28;20033;-76
2021/03/31 10:31:39;;;;;;;5.60;3.03;;;24.50;37.40;;;;;;5034974;28;20140;-77
2021/03/31 10:34:04;;;;;;;8.95;4.10;;;25.10;37.40;;;;;;5038121;28;20044;-77
2021/03/31 10:37:12;;;;;;;8.80;3.25;;;26.00;34.40;;;;;;5006620;28;20496;-77
2021/03/31 10:48:10;;;;;;;8.55;3.55;;;25.30;36.00;;;;;;5033342;28;20106;-77
2021/03/31 10:50:42;;;;;;;4.85;3.03;;;27.50;32.80;;;;;;5050133;28;20060;-77
2021/03/31 10:53:10;;;;;;;7.95;3.78;;;27.40;32.70;;;;;;5039778;28;20045;-77
2021/03/31 10:55:35;;;;;;;7.95;3.65;;;26.00;35.10;;;;;;5030229;28;20056;-77
2021/03/31 10:58:01;;;;;;;8.07;3.55;;;26.20;35.30;;;;;;5036142;28;20607;-77
2021/03/31 11:00:26;;;;;;;9.23;3.85;;;27.30;34.20;;;;;;5050402;28;20751;-77
2021/03/31 11:02:53;;;;;;;5.85;3.78;;;28.70;31.90;;;;;;5042232;28;20130;-78
2021/03/31 11:05:19;;;;;;;8.50;4.13;;;27.80;33.80;;;;;;5053715;28;20044;-77
2021/03/31 11:07:44;;;;;;;6.32;3.15;;;29.10;30.10;;;;;;5019733;28;20496;-78
2021/03/31 11:10:10;;;;;;;5.22;3.63;;;29.70;28.80;;;;;;5057409;28;20036;-77
2021/03/31 11:12:36;;;;;;;5.95;3.10;;;29.90;28.50;;;;;;5017445;28;20037;-77
2021/03/31 11:15:02;;;;;;;4.82;3.17;;;30.00;29.70;;;;;;5053131;28;20032;-78
2021/03/31 11:27:57;;;;;;;4.97;3.15;;;31.20;26.40;;;;;;5025745;28;20025;-78
2021/03/31 11:30:23;;;;;;;7.22;3.55;;;31.20;26.20;;;;;;5009283;28;20072;-78
2021/03/31 11:32:48;;;;;;;7.90;3.22;;;31.30;26.10;;;;;;5030369;28;20036;-78
2021/03/31 11:35:14;;;;;;;4.97;3.78;;;30.80;27.90;;;;;;5033729;28;20044;-78
2021/03/31 11:37:39;;;;;;;5.90;3.47;;;31.80;25.50;;;;;;5039015;28;20056;-78
2021/03/31 11:40:06;;;;;;;6.43;3.30;;;31.60;26.20;;;;;;5055844;28;20044;-79
2021/03/31 11:42:31;;;;;;;7.43;3.22;;;31.50;26.60;;;;;;5053743;28;20469;-78
2021/03/31 11:44:57;;;;;;;6.95;3.17;;;31.80;26.10;;;;;;5052623;28;20090;-79
2021/03/31 11:47:22;;;;;;;5.32;2.88;;;32.20;26.10;;;;;;5023830;28;20040;-78
2021/03/31 11:49:48;;;;;;;4.00;2.63;;;31.90;25.40;;;;;;5050783;28;20084;-79
2021/03/31 11:52:13;;;;;;;8.30;3.92;;;31.50;27.80;;;;;;5014079;28;20116;-78
2021/03/31 11:54:39;;;;;;;6.60;2.97;;;31.80;27.00;;;;;;5062985;28;20155;-78
2021/03/31 11:57:05;;;;;;;8.40;3.35;;;31.50;28.60;;;;;;5040054;28;20033;-78
2021/03/31 11:59:30;;;;;;;7.18;3.17;;;31.90;26.40;;;;;;5035688;28;20072;-78
2021/03/31 12:01:56;;;;;;;6.78;3.75;;;32.10;25.10;;;;;;5041285;28;20757;-78
2021/03/31 12:04:22;;;;;;;7.45;3.38;;;32.60;24.90;;;;;;5038134;28;20036;-78
2021/03/31 12:06:47;;;;;;;4.32;2.58;;;32.80;25.30;;;;;;5038748;28;20048;-78
2021/03/31 12:09:13;;;;;;;4.07;2.95;;;32.60;24.60;;;;;;5040760;28;20033;-78
2021/03/31 12:11:38;;;;;;;6.85;3.50;;;32.70;26.30;;;;;;5009745;28;20041;-78
2021/03/31 12:14:04;;;;;;;5.63;2.88;;;32.70;24.30;;;;;;5010205;28;20048;-78
2021/03/31 12:16:29;;;;;;;6.03;3.25;;;32.80;24.50;;;;;;5037738;28;20388;-78
2021/03/31 12:18:55;;;;;;;5.32;2.78;;;31.80;26.60;;;;;;5008533;28;20505;-78
2021/03/31 12:21:20;;;;;;;6.10;3.78;;;31.90;25.60;;;;;;5034152;28;20033;-78
2021/03/31 12:23:46;;;;;;;5.22;2.50;;;30.30;28.30;;;;;;5035039;28;20043;-78
2021/03/31 12:26:13;;;;;;;6.22;2.88;;;29.10;29.60;;;;;;5012370;28;20105;-78
2021/03/31 12:28:39;;;;;;;7.63;3.53;;;31.10;27.10;;;;;;5031885;28;20048;-78
2021/03/31 12:31:07;;;;;;;4.05;3.10;;;29.60;28.50;;;;;;5007720;28;20527;-78
2021/03/31 12:33:33;;;;;;;6.63;2.30;;;29.10;30.40;;;;;;5008197;28;20033;-78
2021/03/31 12:35:58;;;;;;;6.70;2.13;;;30.00;28.70;;;;;;5042484;28;20043;-78
2021/03/31 12:38:24;;;;;;;4.28;2.25;;;31.60;26.50;;;;;;5055114;28;20029;-78
2021/03/31 12:40:49;;;;;;;2.88;2.03;;;32.30;25.40;;;;;;5040722;28;20038;-78
2021/03/31 12:43:15;;;;;;;4.22;2.30;;;32.40;25.10;;;;;;5038091;28;20033;-78
2021/03/31 12:45:40;;;;;;;3.28;2.35;;;32.90;23.80;;;;;;5049676;28;20068;-78
2021/03/31 12:48:06;;;;;;;4.22;1.60;;;32.20;25.80;;;;;;5026260;28;20041;-78
2021/03/31 12:50:33;;;;;;;2.55;1.67;;;32.00;23.50;;;;;;5052475;28;20040;-78
2021/03/31 12:53:19;;;;;;;4.57;1.80;;;33.00;22.80;;;;;;5038953;28;20036;-78
2021/03/31 12:55:45;;;;;;;3.05;1.88;;;33.50;21.50;;;;;;5054676;28;20060;-78
2021/03/31 12:58:13;;;;;;;5.03;2.08;;;33.20;22.50;;;;;;5028398;28;20032;-78
2021/03/31 13:00:41;;;;;;;5.32;2.17;;;33.30;21.80;;;;;;5040872;28;20681;-78
2021/03/31 13:03:07;;;;;;;3.92;1.77;;;33.10;23.20;;;;;;5024406;28;20477;-78
2021/03/31 13:05:34;;;;;;;4.32;2.45;;;33.00;22.20;;;;;;5006446;28;20562;-78